createdAt,value
2019-06-07T00:02:10.679Z,20.10
2019-06-07T00:04:43.072Z,20.10
2019-06-07T00:07:17.759Z,20.20
2019-06-07T00:09:50.080Z,20.20
2019-06-07T00:12:22.807Z,20.20
2019-06-07T00:14:55.281Z,20.10
2019-06-07T00:17:27.653Z,20.10
2019-06-07T00:20:00.414Z,20.10
2019-06-07T00:22:33.906Z,20.10
2019-06-07T00:25:12.174Z,20.10
2019-06-07T00:27:42.592Z,20.10
2019-06-07T00:30:44.741Z,20.10
2019-06-07T00:32:49.906Z,20.00
2019-06-07T00:35:22.998Z,20.00
2019-06-07T00:37:56.939Z,20.10
2019-06-07T00:40:32.120Z,20.20
2019-06-07T00:43:03.397Z,20.30
2019-06-07T00:45:35.901Z,20.20
2019-06-07T00:48:08.265Z,20.30
2019-06-07T00:50:40.870Z,20.20
2019-06-07T00:53:17.412Z,20.30
2019-06-07T00:55:47.663Z,20.30
2019-06-07T00:58:24.745Z,20.30
2019-06-07T01:00:54.303Z,20.30
2019-06-07T01:03:27.275Z,20.30
2019-06-07T01:06:00.019Z,20.30
2019-06-07T01:08:32.639Z,20.30
2019-06-07T01:11:05.208Z,20.30
2019-06-07T01:13:37.720Z,20.40
2019-06-07T01:16:10.407Z,20.40
2019-06-07T01:18:46.612Z,20.30
2019-06-07T01:21:21.707Z,20.30
2019-06-07T01:24:10.900Z,20.30
2019-06-07T01:26:29.423Z,20.10
2019-06-07T01:29:00.105Z,20.00
2019-06-07T01:31:32.698Z,20.00
2019-06-07T01:34:05.090Z,20.10
2019-06-07T01:36:37.438Z,20.20
2019-06-07T01:39:10.000Z,20.20
2019-06-07T01:41:42.386Z,20.30
2019-06-07T01:44:14.808Z,20.20
2019-06-07T01:46:47.399Z,20.20
2019-06-07T01:49:21.929Z,20.20
2019-06-07T01:51:54.834Z,20.30
2019-06-07T01:54:52.241Z,20.10
2019-06-07T01:57:02.035Z,19.90
2019-06-07T01:59:34.673Z,19.90
2019-06-07T02:02:07.686Z,19.90
2019-06-07T02:04:39.958Z,19.80
2019-06-07T02:07:12.630Z,19.70
2019-06-07T02:09:45.306Z,19.80
2019-06-07T02:12:28.181Z,19.80
2019-06-07T02:14:52.071Z,19.80
2019-06-07T02:17:27.758Z,19.80
2019-06-07T02:19:59.376Z,19.80
2019-06-07T02:22:32.629Z,19.80
2019-06-07T02:25:35.096Z,19.70
2019-06-07T02:27:41.346Z,19.80
2019-06-07T02:32:49.350Z,19.70
2019-06-07T02:35:25.603Z,19.60
2019-06-07T02:37:56.048Z,19.60
2019-06-07T02:40:36.033Z,19.50
2019-06-07T02:43:03.067Z,19.50
2019-06-07T02:45:42.249Z,19.50
2019-06-07T02:48:09.807Z,19.50
2019-06-07T02:50:42.281Z,19.50
2019-06-07T02:53:14.815Z,19.50
2019-06-07T02:56:33.845Z,19.50
2019-06-07T02:58:21.949Z,19.40
2019-06-07T03:01:06.822Z,19.40
2019-06-07T03:03:31.200Z,19.40
2019-06-07T03:06:04.734Z,19.30
2019-06-07T03:08:40.204Z,19.20
2019-06-07T03:11:15.114Z,19.10
2019-06-07T03:13:49.764Z,19.10
2019-06-07T03:16:33.509Z,19.20
2019-06-07T03:19:12.114Z,19.10
2019-06-07T03:21:45.508Z,19.10
2019-06-07T03:24:18.039Z,19.00
2019-06-07T03:29:28.358Z,19.00
2019-06-07T03:31:59.102Z,19.00
2019-06-07T03:34:34.229Z,19.00
2019-06-07T03:37:06.070Z,19.00
2019-06-07T03:39:40.950Z,19.00
2019-06-07T03:42:12.882Z,19.10
2019-06-07T03:44:45.771Z,19.00
2019-06-07T03:47:18.697Z,19.10
2019-06-07T03:49:51.104Z,19.10
2019-06-07T03:52:23.833Z,19.10
2019-06-07T03:54:56.578Z,19.10
2019-06-07T03:57:37.113Z,19.20
2019-06-07T04:00:04.215Z,19.10
2019-06-07T04:02:39.564Z,19.20
2019-06-07T04:05:11.237Z,19.20
2019-06-07T04:07:44.292Z,19.10
2019-06-07T04:10:17.443Z,19.10
2019-06-07T04:12:49.924Z,19.20
2019-06-07T04:15:22.595Z,19.30
2019-06-07T04:18:02.066Z,19.30
2019-06-07T04:20:32.559Z,19.30
2019-06-07T04:23:03.570Z,19.40
2019-06-07T04:25:39.575Z,19.40
2019-06-07T04:28:10.457Z,19.40
2019-06-07T04:30:44.349Z,19.40
2019-06-07T04:33:17.463Z,19.60
2019-06-07T04:35:50.560Z,19.70
2019-06-07T04:38:23.957Z,19.70
2019-06-07T04:40:57.275Z,19.80
2019-06-07T04:43:33.540Z,19.90
2019-06-07T04:46:06.647Z,20.20
2019-06-07T04:48:43.913Z,20.50
2019-06-07T04:51:18.521Z,20.50
2019-06-07T04:53:51.097Z,20.70
2019-06-07T04:56:23.758Z,20.80
2019-06-07T04:58:56.486Z,20.90
2019-06-07T05:01:30.799Z,21.00
2019-06-07T05:04:04.031Z,21.10
2019-06-07T05:06:39.663Z,21.30
2019-06-07T05:09:11.160Z,21.50
2019-06-07T05:11:45.045Z,21.90
2019-06-07T05:14:19.670Z,22.20
2019-06-07T05:16:52.458Z,22.40
2019-06-07T05:19:24.822Z,22.50
2019-06-07T05:22:04.557Z,22.60
2019-06-07T05:24:36.520Z,22.80
2019-06-07T05:27:06.237Z,23.00
2019-06-07T05:29:40.649Z,22.80
2019-06-07T05:32:13.315Z,22.90
2019-06-07T05:34:47.316Z,23.10
2019-06-07T05:37:20.114Z,23.30
2019-06-07T05:39:52.511Z,23.40
2019-06-07T05:42:24.785Z,23.30
2019-06-07T05:44:57.363Z,23.40
2019-06-07T05:47:29.916Z,23.70
2019-06-07T05:50:02.989Z,23.60
2019-06-07T05:52:38.530Z,23.70
2019-06-07T05:55:09.281Z,24.00
2019-06-07T05:57:48.562Z,24.20
2019-06-07T06:00:16.698Z,24.10
2019-06-07T06:03:04.086Z,24.20
2019-06-07T06:05:33.742Z,24.20
2019-06-07T06:07:57.899Z,24.60
2019-06-07T06:10:30.684Z,24.90
2019-06-07T06:13:03.079Z,25.00
2019-06-07T06:15:45.924Z,24.50
2019-06-07T06:18:09.933Z,24.40
2019-06-07T06:21:08.562Z,24.00
2019-06-07T06:23:16.947Z,23.30
2019-06-07T06:25:56.605Z,23.10
2019-06-07T06:28:24.157Z,22.80
2019-06-07T06:30:57.017Z,22.50
2019-06-07T06:33:34.511Z,22.10
2019-06-07T06:36:04.228Z,21.80
2019-06-07T06:38:38.592Z,21.70
2019-06-07T06:41:15.942Z,21.70
2019-06-07T06:43:49.094Z,21.60
2019-06-07T06:46:37.301Z,21.50
2019-06-07T06:48:55.371Z,21.50
2019-06-07T06:51:28.082Z,21.50
2019-06-07T06:54:00.682Z,21.40
2019-06-07T06:56:33.199Z,21.30
2019-06-07T06:59:37.418Z,21.40
2019-06-07T07:01:40.521Z,21.40
2019-06-07T07:04:13.907Z,21.50
2019-06-07T07:06:48.173Z,21.60
2019-06-07T07:09:23.436Z,21.60
2019-06-07T07:12:10.880Z,21.70
2019-06-07T07:14:29.974Z,21.60
2019-06-07T07:17:02.528Z,21.50
2019-06-07T07:19:34.930Z,21.60
2019-06-07T07:22:07.425Z,21.50
2019-06-07T07:24:40.026Z,21.50
2019-06-07T07:27:13.221Z,21.50
2019-06-07T07:29:49.519Z,21.40
2019-06-07T07:32:20.355Z,21.50
2019-06-07T07:35:00.119Z,21.70
2019-06-07T07:37:27.525Z,21.80
2019-06-07T07:40:09.447Z,22.00
2019-06-07T07:42:34.146Z,22.30
2019-06-07T07:45:07.376Z,22.70
2019-06-07T07:47:58.368Z,22.90
2019-06-07T07:50:14.303Z,23.10
2019-06-07T07:52:49.109Z,23.20
2019-06-07T07:55:21.721Z,23.10
2019-06-07T07:58:01.081Z,23.10
2019-06-07T08:00:52.244Z,23.30
2019-06-07T08:03:04.747Z,23.20
2019-06-07T08:05:42.884Z,23.20
2019-06-07T08:08:12.059Z,23.30
2019-06-07T08:10:44.626Z,23.40
2019-06-07T08:13:25.403Z,23.40
2019-06-07T08:15:54.443Z,23.30
2019-06-07T08:18:25.831Z,23.10
2019-06-07T08:21:15.380Z,23.00
2019-06-07T08:23:34.275Z,23.00
2019-06-07T08:26:07.115Z,23.00
2019-06-07T08:28:39.845Z,23.00
2019-06-07T08:31:12.395Z,22.70
2019-06-07T08:33:45.682Z,22.60
2019-06-07T08:36:25.239Z,22.50
2019-06-07T08:38:57.177Z,22.40
2019-06-07T08:41:26.934Z,22.20
2019-06-07T08:44:02.603Z,22.20
2019-06-07T08:46:33.661Z,22.40
2019-06-07T08:49:05.974Z,22.60
2019-06-07T08:51:38.808Z,22.70
2019-06-07T08:54:22.393Z,22.70
2019-06-07T08:56:45.499Z,22.80
2019-06-07T08:59:18.194Z,22.80
2019-06-07T09:01:52.074Z,22.90
2019-06-07T09:04:34.211Z,23.00
2019-06-07T09:07:18.965Z,23.10
2019-06-07T09:09:42.099Z,23.20
2019-06-07T09:12:14.590Z,23.40
2019-06-07T09:14:59.834Z,23.60
2019-06-07T09:17:21.502Z,23.70
2019-06-07T09:19:56.255Z,23.80
2019-06-07T09:22:28.254Z,24.30
2019-06-07T09:25:09.495Z,25.50
2019-06-07T09:27:35.982Z,26.40
2019-06-07T09:30:16.588Z,26.60
2019-06-07T09:32:45.594Z,26.80
2019-06-07T09:35:37.344Z,27.30
2019-06-07T09:38:23.352Z,27.40
2019-06-07T09:40:44.244Z,26.60
2019-06-07T09:43:59.825Z,26.10
2019-06-07T09:45:51.069Z,26.80
2019-06-07T09:49:09.093Z,26.60
2019-06-07T09:51:00.905Z,26.60
2019-06-07T09:53:32.247Z,26.10
2019-06-07T09:56:08.790Z,26.00
2019-06-07T09:58:54.738Z,26.30
2019-06-07T10:01:14.198Z,26.50
2019-06-07T10:03:47.300Z,26.80
2019-06-07T10:06:30.467Z,27.10
2019-06-07T10:11:37.482Z,27.80
2019-06-07T10:14:10.174Z,27.70
2019-06-07T10:16:46.917Z,27.50
2019-06-07T10:19:16.927Z,27.20
2019-06-07T10:21:49.880Z,27.10
2019-06-07T10:24:22.249Z,26.60
2019-06-07T10:26:55.019Z,26.50
2019-06-07T10:29:27.696Z,26.20
2019-06-07T10:32:00.310Z,26.00
2019-06-07T10:34:34.557Z,25.90
2019-06-07T10:37:09.210Z,25.60
2019-06-07T10:39:48.528Z,25.30
2019-06-07T10:42:15.602Z,25.30
2019-06-07T10:44:47.991Z,25.00
2019-06-07T10:47:20.498Z,25.20
2019-06-07T10:49:53.240Z,25.40
2019-06-07T10:52:25.984Z,25.70
2019-06-07T10:54:58.798Z,26.30
2019-06-07T10:57:31.220Z,26.30
2019-06-07T11:00:03.947Z,26.20
2019-06-07T11:02:38.452Z,26.50
2019-06-07T11:05:12.283Z,26.60
2019-06-07T11:07:46.539Z,26.20
2019-06-07T11:10:20.315Z,26.30
2019-06-07T11:12:53.357Z,26.60
2019-06-07T11:15:25.907Z,26.90
2019-06-07T11:17:58.369Z,26.80
2019-06-07T11:20:30.844Z,26.90
2019-06-07T11:23:03.160Z,27.10
2019-06-07T11:25:35.960Z,27.30
2019-06-07T11:28:08.481Z,26.60
2019-06-07T11:30:41.417Z,26.60
2019-06-07T11:33:16.301Z,26.40
2019-06-07T11:35:47.911Z,26.40
2019-06-07T11:38:20.628Z,26.30
2019-06-07T11:40:53.434Z,26.20
2019-06-07T11:43:26.265Z,26.50
2019-06-07T11:45:59.052Z,26.60
2019-06-07T11:48:31.760Z,26.60
2019-06-07T11:51:04.371Z,26.50
2019-06-07T11:53:36.810Z,26.40
2019-06-07T11:56:10.355Z,26.30
2019-06-07T11:58:43.203Z,26.20
2019-06-07T12:01:18.143Z,25.90
2019-06-07T12:03:50.326Z,26.00
2019-06-07T12:06:22.740Z,26.10
2019-06-07T12:08:55.254Z,25.70
2019-06-07T12:11:27.776Z,25.90
2019-06-07T12:14:00.344Z,26.10
2019-06-07T12:16:33.135Z,26.30
2019-06-07T12:19:06.742Z,26.10
2019-06-07T12:21:39.330Z,26.10
2019-06-07T12:24:12.231Z,26.10
2019-06-07T12:26:44.770Z,26.10
2019-06-07T12:29:17.299Z,26.20
2019-06-07T12:31:49.861Z,26.00
2019-06-07T12:34:22.247Z,26.00
2019-06-07T12:37:02.848Z,26.20
2019-06-07T12:39:35.271Z,26.50
2019-06-07T12:42:08.115Z,26.30
2019-06-07T12:44:40.728Z,26.30
2019-06-07T12:47:13.163Z,26.40
2019-06-07T12:49:45.707Z,26.20
2019-06-07T12:52:20.037Z,26.10
2019-06-07T12:54:52.699Z,26.10
2019-06-07T12:57:25.187Z,26.00
2019-06-07T12:59:57.705Z,26.00
2019-06-07T13:02:30.391Z,26.00
2019-06-07T13:05:04.616Z,26.10
2019-06-07T13:07:37.264Z,26.50
2019-06-07T13:10:11.005Z,26.60
2019-06-07T13:12:44.168Z,26.80
2019-06-07T13:15:19.910Z,26.70
2019-06-07T13:17:51.907Z,26.70
2019-06-07T13:20:24.846Z,26.50
2019-06-07T13:22:57.435Z,26.60
2019-06-07T13:25:44.585Z,26.70
2019-06-07T13:28:04.244Z,26.70
2019-06-07T13:30:36.898Z,26.70
2019-06-07T13:33:09.801Z,26.60
2019-06-07T13:35:42.438Z,26.60
2019-06-07T13:38:25.941Z,26.60
2019-06-07T13:40:59.413Z,26.70
2019-06-07T13:43:31.972Z,26.60
2019-06-07T13:46:04.387Z,26.50
2019-06-07T13:48:37.120Z,26.50
2019-06-07T13:51:09.784Z,26.50
2019-06-07T13:53:42.403Z,26.40
2019-06-07T13:56:15.023Z,26.30
2019-06-07T13:58:47.706Z,26.30
2019-06-07T14:01:20.377Z,26.30
2019-06-07T14:03:52.819Z,26.30
2019-06-07T14:06:25.346Z,26.20
2019-06-07T14:08:57.892Z,26.20
2019-06-07T14:11:49.374Z,26.10
2019-06-07T14:14:06.318Z,26.20
2019-06-07T14:16:39.127Z,26.30
2019-06-07T14:19:12.069Z,26.20
2019-06-07T14:21:44.639Z,26.30
2019-06-07T14:24:17.232Z,26.30
2019-06-07T14:27:08.480Z,26.20
2019-06-07T14:29:41.064Z,26.20
2019-06-07T14:32:13.655Z,26.20
2019-06-07T14:34:46.580Z,26.20
2019-06-07T14:37:19.103Z,26.20
2019-06-07T14:39:51.446Z,26.00
2019-06-07T14:42:25.358Z,25.90
2019-06-07T14:44:57.658Z,26.00
2019-06-07T14:47:30.111Z,26.10
2019-06-07T14:50:02.648Z,26.00
2019-06-07T14:52:35.408Z,26.10
2019-06-07T14:55:08.671Z,26.00
2019-06-07T14:57:41.665Z,25.80
2019-06-07T15:00:14.817Z,25.80
2019-06-07T15:02:47.591Z,25.80
2019-06-07T15:05:31.227Z,25.90
2019-06-07T15:08:04.327Z,25.90
2019-06-07T15:10:37.077Z,25.90
2019-06-07T15:13:09.490Z,25.80
2019-06-07T15:15:41.996Z,25.80
2019-06-07T15:18:14.775Z,25.80
2019-06-07T15:20:47.486Z,25.80
2019-06-07T15:23:20.116Z,25.80
2019-06-07T15:26:05.046Z,25.80
2019-06-07T15:28:38.461Z,25.80
2019-06-07T15:31:10.968Z,25.80
2019-06-07T15:33:43.529Z,25.80
2019-06-07T15:36:16.365Z,25.90
2019-06-07T15:38:49.252Z,25.90
2019-06-07T15:41:21.811Z,26.00
2019-06-07T15:43:54.912Z,25.90
2019-06-07T15:46:27.555Z,25.80
2019-06-07T15:49:00.036Z,25.90
2019-06-07T15:51:34.383Z,26.00
2019-06-07T15:54:07.249Z,25.90
2019-06-07T15:56:41.370Z,25.90
2019-06-07T15:59:15.997Z,25.80
2019-06-07T16:01:48.507Z,25.90
2019-06-07T16:04:21.400Z,25.80
2019-06-07T16:06:53.853Z,25.80
2019-06-07T16:09:26.353Z,25.80
2019-06-07T16:11:59.078Z,25.70
2019-06-07T16:14:33.042Z,25.70
2019-06-07T16:17:05.671Z,25.70
2019-06-07T16:19:42.835Z,25.70
2019-06-07T16:22:12.571Z,25.80
2019-06-07T16:24:45.534Z,25.70
2019-06-07T16:27:17.897Z,25.80
2019-06-07T16:29:50.524Z,25.70
2019-06-07T16:32:22.964Z,25.70
2019-06-07T16:34:55.701Z,25.80
2019-06-07T16:37:28.261Z,25.70
2019-06-07T16:40:00.812Z,25.70
2019-06-07T16:42:33.442Z,25.70
2019-06-07T16:45:06.762Z,25.70
2019-06-07T16:47:42.438Z,25.70
2019-06-07T16:50:16.682Z,25.70
2019-06-07T16:52:48.930Z,25.70
2019-06-07T16:55:22.306Z,25.60
2019-06-07T16:57:54.770Z,25.70
2019-06-07T17:00:27.835Z,25.70
2019-06-07T17:03:00.829Z,25.60
2019-06-07T17:05:33.473Z,25.60
2019-06-07T17:08:06.299Z,25.50
2019-06-07T17:10:40.010Z,25.60
2019-06-07T17:13:14.565Z,25.60
2019-06-07T17:15:49.053Z,25.60
2019-06-07T17:18:22.544Z,25.50
2019-06-07T17:20:55.302Z,25.50
2019-06-07T17:23:28.291Z,25.50
2019-06-07T17:26:00.496Z,25.40
2019-06-07T17:28:41.788Z,25.50
2019-06-07T17:31:17.503Z,25.40
2019-06-07T17:33:50.316Z,25.50
2019-06-07T17:36:23.213Z,25.40
2019-06-07T17:38:56.069Z,25.40
2019-06-07T17:41:28.978Z,25.30
2019-06-07T17:44:02.542Z,25.30
2019-06-07T17:46:35.381Z,25.30
2019-06-07T17:49:07.863Z,25.20
2019-06-07T17:51:41.772Z,25.20
2019-06-07T17:54:14.292Z,25.20
2019-06-07T17:56:46.786Z,25.20
2019-06-07T17:59:22.254Z,25.10
2019-06-07T18:02:13.249Z,25.10
2019-06-07T18:04:31.334Z,25.00
2019-06-07T18:07:04.625Z,25.00
2019-06-07T18:09:38.237Z,25.00
2019-06-07T18:12:10.964Z,25.00
2019-06-07T18:14:43.943Z,25.00
2019-06-07T18:17:16.399Z,24.90
2019-06-07T18:19:49.036Z,24.90
2019-06-07T18:22:21.352Z,24.80
2019-06-07T18:24:54.719Z,24.80
2019-06-07T18:27:27.117Z,24.80
2019-06-07T18:30:00.047Z,24.70
2019-06-07T18:32:32.762Z,24.70
2019-06-07T18:35:05.520Z,24.60
2019-06-07T18:37:38.128Z,24.70
2019-06-07T18:40:11.199Z,24.60
2019-06-07T18:42:44.245Z,24.60
2019-06-07T18:45:17.552Z,24.60
2019-06-07T18:47:51.420Z,24.60
2019-06-07T18:50:24.008Z,24.50
2019-06-07T18:52:56.682Z,24.50
2019-06-07T18:55:29.575Z,24.50
2019-06-07T18:58:01.944Z,24.50
2019-06-07T19:00:34.958Z,24.40
2019-06-07T19:03:07.679Z,24.30
2019-06-07T19:05:40.251Z,24.30
2019-06-07T19:08:13.413Z,24.30
2019-06-07T19:10:46.014Z,24.30
2019-06-07T19:13:18.500Z,24.20
2019-06-07T19:15:51.199Z,24.20
2019-06-07T19:18:23.766Z,24.10
2019-06-07T19:20:56.535Z,24.00
2019-06-07T19:23:29.181Z,24.10
2019-06-07T19:26:01.766Z,24.00
2019-06-07T19:28:34.795Z,24.00
2019-06-07T19:31:07.438Z,24.00
2019-06-07T19:33:48.743Z,24.00
2019-06-07T19:36:15.090Z,24.00
2019-06-07T19:38:47.881Z,23.90
2019-06-07T19:41:20.408Z,23.90
2019-06-07T19:43:54.111Z,23.90
2019-06-07T19:46:27.098Z,23.80
2019-06-07T19:49:00.775Z,23.70
2019-06-07T19:51:33.402Z,23.70
2019-06-07T19:54:05.894Z,23.70
2019-06-07T19:56:38.254Z,23.70
2019-06-07T19:59:11.717Z,23.60
2019-06-07T20:01:44.646Z,23.60
2019-06-07T20:04:17.396Z,23.60
2019-06-07T20:06:49.852Z,23.60
2019-06-07T20:09:23.220Z,23.50
2019-06-07T20:11:56.495Z,23.50
2019-06-07T20:14:29.117Z,23.50
2019-06-07T20:17:03.331Z,23.40
2019-06-07T20:19:36.068Z,23.40
2019-06-07T20:22:09.606Z,23.40
2019-06-07T20:24:42.222Z,23.50
2019-06-07T20:27:15.988Z,23.40
2019-06-07T20:29:48.460Z,23.40
2019-06-07T20:32:20.959Z,23.30
2019-06-07T20:34:53.446Z,23.20
2019-06-07T20:37:28.600Z,23.20
2019-06-07T20:40:13.103Z,23.20
2019-06-07T20:42:36.372Z,23.20
2019-06-07T20:45:33.186Z,23.20
2019-06-07T20:47:55.684Z,23.20
2019-06-07T20:50:28.556Z,23.20
2019-06-07T20:53:03.035Z,23.00
2019-06-07T20:55:35.901Z,22.90
2019-06-07T20:58:09.542Z,22.90
2019-06-07T21:00:42.618Z,22.80
2019-06-07T21:03:15.294Z,22.80
2019-06-07T21:05:48.291Z,22.80
2019-06-07T21:08:20.709Z,22.80
2019-06-07T21:10:53.368Z,22.70
2019-06-07T21:13:26.457Z,22.70
2019-06-07T21:15:59.968Z,22.70
2019-06-07T21:18:32.493Z,22.70
2019-06-07T21:21:06.443Z,22.60
2019-06-07T21:23:39.248Z,22.60
2019-06-07T21:26:11.907Z,22.50
2019-06-07T21:28:44.517Z,22.50
2019-06-07T21:31:17.141Z,22.50
2019-06-07T21:33:49.622Z,22.60
2019-06-07T21:36:22.418Z,22.60
2019-06-07T21:38:55.801Z,22.50
2019-06-07T21:41:39.049Z,22.40
2019-06-07T21:44:14.933Z,22.40
2019-06-07T21:46:50.305Z,22.40
2019-06-07T21:49:23.162Z,22.40
2019-06-07T21:51:55.704Z,22.30
2019-06-07T21:54:28.089Z,22.30
2019-06-07T21:57:00.565Z,22.30
2019-06-07T21:59:32.996Z,22.30
2019-06-07T22:02:07.444Z,22.30
2019-06-07T22:04:40.518Z,22.30
2019-06-07T22:07:13.672Z,22.10
2019-06-07T22:09:46.645Z,22.10
2019-06-07T22:12:19.592Z,22.10
2019-06-07T22:14:52.536Z,22.00
2019-06-07T22:17:35.337Z,21.90
2019-06-07T22:20:08.822Z,21.80
2019-06-07T22:22:41.334Z,21.70
2019-06-07T22:25:15.147Z,21.80
2019-06-07T22:27:47.574Z,21.70
2019-06-07T22:30:20.491Z,21.70
2019-06-07T22:32:53.248Z,21.60
2019-06-07T22:35:25.648Z,21.60
2019-06-07T22:38:01.300Z,21.50
2019-06-07T22:40:34.918Z,21.40
2019-06-07T22:43:07.593Z,21.30
2019-06-07T22:45:40.269Z,21.30
2019-06-07T22:48:13.806Z,21.30
2019-06-07T22:50:46.499Z,21.30
2019-06-07T22:53:19.066Z,21.20
2019-06-07T22:56:10.195Z,21.20
2019-06-07T22:58:43.053Z,21.20
2019-06-07T23:01:17.082Z,21.30
2019-06-07T23:03:49.828Z,21.30
2019-06-07T23:06:22.436Z,21.30
2019-06-07T23:08:54.871Z,21.20
2019-06-07T23:11:27.263Z,21.20
2019-06-07T23:13:59.912Z,21.20
2019-06-07T23:16:32.563Z,21.20
2019-06-07T23:19:05.140Z,21.00
2019-06-07T23:21:37.719Z,20.90
2019-06-07T23:24:10.375Z,20.90
2019-06-07T23:26:42.798Z,21.00
2019-06-07T23:29:16.582Z,20.90
2019-06-07T23:31:49.055Z,20.90
2019-06-07T23:34:21.439Z,20.90
2019-06-07T23:36:54.036Z,20.80
2019-06-07T23:39:26.690Z,20.70
2019-06-07T23:41:59.526Z,20.60
2019-06-07T23:44:32.112Z,20.70
2019-06-07T23:47:11.354Z,20.70
2019-06-07T23:49:38.961Z,20.60
2019-06-07T23:52:12.011Z,20.60
2019-06-07T23:54:44.693Z,20.50
2019-06-07T23:57:19.192Z,20.40
2019-06-07T23:59:51.616Z,20.50
